Time;durP1;ratioP1;P1;durP2;ratioP2;P2;SDS_P1;SDS_P2;PMS_P1;PMS_P2;Temp;Humidity;BMP_temperature;BMP_pressure;BME280_temperature;BME280_humidity;BME280_pressure;Samples;Min_cycle;Max_cycle;Signal;HPM_P1;HPM_P2
2022/08/06 00:02:08;;;;;;;15.45;9.23;;;24.80;93.10;;;;;;5054126;28;20225;-69
2022/08/06 00:04:35;;;;;;;9.18;7.28;;;24.90;93.20;;;;;;5053120;28;20210;-70
2022/08/06 00:07:02;;;;;;;12.15;7.70;;;24.90;93.30;;;;;;5052559;28;20646;-70
2022/08/06 00:09:30;;;;;;;8.93;7.30;;;24.90;93.40;;;;;;5052630;28;20214;-70
2022/08/06 00:11:59;;;;;;;11.27;8.00;;;24.90;93.40;;;;;;5052821;28;20743;-71
2022/08/06 00:14:26;;;;;;;9.43;7.25;;;24.90;93.40;;;;;;5051824;28;20218;-70
2022/08/06 00:16:52;;;;;;;8.70;7.15;;;24.90;93.40;;;;;;5051451;28;20667;-70
2022/08/06 00:19:19;;;;;;;9.63;7.32;;;24.90;93.40;;;;;;5062662;28;20205;-69
2022/08/06 00:21:46;;;;;;;11.27;7.70;;;24.90;93.40;;;;;;5068957;28;20248;-70
2022/08/06 00:24:13;;;;;;;9.95;8.27;;;24.90;93.40;;;;;;5052751;28;20630;-70
2022/08/06 00:26:40;;;;;;;11.95;7.82;;;24.90;93.50;;;;;;5052933;28;20210;-70
2022/08/06 00:29:08;;;;;;;10.85;7.53;;;24.90;93.60;;;;;;5056417;28;20526;-69
2022/08/06 00:31:35;;;;;;;11.68;7.93;;;24.90;93.70;;;;;;5060664;28;20700;-70
2022/08/06 00:34:03;;;;;;;11.48;8.25;;;24.80;93.60;;;;;;5063111;28;20712;-69
2022/08/06 00:36:31;;;;;;;14.35;10.52;;;24.80;93.60;;;;;;5069723;28;20212;-69
2022/08/06 00:38:59;;;;;;;11.35;10.02;;;24.70;93.70;;;;;;5052163;28;20213;-70
2022/08/06 00:41:27;;;;;;;11.35;8.85;;;24.80;94.10;;;;;;5052478;28;20218;-69
2022/08/06 00:43:54;;;;;;;9.35;7.78;;;24.70;94.30;;;;;;5051672;28;20214;-70
2022/08/06 00:46:23;;;;;;;10.68;8.90;;;24.60;94.40;;;;;;5067022;28;20721;-70
2022/08/06 00:48:50;;;;;;;13.45;9.70;;;24.60;94.60;;;;;;5052389;28;20264;-69
2022/08/06 00:51:17;;;;;;;14.07;9.48;;;24.60;94.70;;;;;;5056651;28;20209;-70
2022/08/06 00:53:44;;;;;;;14.93;10.85;;;24.50;95.00;;;;;;5051048;28;20572;-70
2022/08/06 00:56:10;;;;;;;10.38;9.38;;;24.50;95.20;;;;;;5053428;28;20198;-70
2022/08/06 00:58:38;;;;;;;9.32;8.32;;;24.40;95.40;;;;;;5059892;28;20690;-70
2022/08/06 01:01:05;;;;;;;14.88;10.82;;;24.30;95.60;;;;;;5052243;28;20233;-69
2022/08/06 01:03:33;;;;;;;10.75;9.07;;;24.20;95.80;;;;;;5051663;28;20210;-70
2022/08/06 01:06:00;;;;;;;11.45;9.65;;;24.20;96.10;;;;;;5052040;28;20216;-69
2022/08/06 01:08:26;;;;;;;11.18;9.70;;;24.10;96.30;;;;;;5055285;28;20213;-70
2022/08/06 01:10:53;;;;;;;12.43;9.73;;;24.00;96.50;;;;;;5060545;28;20209;-69
2022/08/06 01:13:20;;;;;;;13.80;9.95;;;24.00;96.70;;;;;;5056284;28;20209;-71
2022/08/06 01:15:52;;;;;;;12.48;9.95;;;24.00;97.00;;;;;;5043243;28;20217;-70
2022/08/06 01:18:26;;;;;;;15.02;9.80;;;23.90;97.10;;;;;;5046719;28;20210;-70
2022/08/06 01:21:08;;;;;;;10.90;9.05;;;23.90;97.30;;;;;;5050628;28;20224;-70
2022/08/06 01:23:52;;;;;;;15.68;10.38;;;23.90;97.50;;;;;;5052098;28;20598;-70
2022/08/06 01:26:32;;;;;;;11.70;9.82;;;23.90;97.60;;;;;;5052605;28;20279;-69
2022/08/06 01:29:05;;;;;;;13.55;9.93;;;23.90;97.80;;;;;;5051475;28;20206;-70
2022/08/06 01:31:35;;;;;;;11.80;9.18;;;23.80;97.80;;;;;;5055246;28;20252;-70
2022/08/06 01:34:10;;;;;;;9.82;8.50;;;23.80;97.80;;;;;;5062637;28;20238;-71
2022/08/06 01:36:41;;;;;;;10.20;9.25;;;23.80;97.80;;;;;;5050228;28;20654;-71
2022/08/06 01:39:10;;;;;;;15.82;10.77;;;23.80;97.80;;;;;;5052304;28;20210;-69
2022/08/06 01:41:43;;;;;;;13.63;8.68;;;23.80;97.70;;;;;;5038091;28;20233;-70
2022/08/06 01:44:14;;;;;;;17.67;12.93;;;23.80;97.60;;;;;;5042452;28;20209;-69
2022/08/06 01:46:45;;;;;;;21.45;13.60;;;23.80;97.70;;;;;;5037107;28;20654;-70
2022/08/06 01:49:14;;;;;;;19.42;12.30;;;23.80;97.80;;;;;;5050683;28;20487;-71
2022/08/06 01:51:43;;;;;;;10.88;9.40;;;23.80;97.90;;;;;;5057507;28;20209;-70
2022/08/06 01:54:11;;;;;;;14.88;9.60;;;23.80;98.10;;;;;;5055539;28;20205;-68
2022/08/06 01:56:41;;;;;;;16.83;13.60;;;23.70;98.10;;;;;;5055330;28;20228;-68
2022/08/06 01:59:09;;;;;;;16.13;10.25;;;23.70;98.20;;;;;;5061707;28;20674;-69
2022/08/06 02:01:38;;;;;;;13.77;10.93;;;23.70;98.20;;;;;;5051910;28;20209;-69
2022/08/06 02:04:06;;;;;;;16.02;11.07;;;23.70;98.20;;;;;;5049567;28;20214;-69
2022/08/06 02:06:36;;;;;;;12.35;10.18;;;23.70;98.30;;;;;;5049687;28;20277;-69
2022/08/06 02:09:08;;;;;;;10.38;8.77;;;23.70;98.30;;;;;;5059523;28;20204;-69
2022/08/06 02:11:37;;;;;;;14.85;11.45;;;23.70;98.20;;;;;;5056060;28;20206;-68
2022/08/06 02:14:06;;;;;;;15.05;10.75;;;23.70;98.20;;;;;;5050575;28;20227;-69
2022/08/06 02:16:37;;;;;;;11.10;9.10;;;23.70;98.20;;;;;;5050539;28;20205;-69
2022/08/06 02:19:06;;;;;;;11.82;8.95;;;23.70;98.20;;;;;;5052345;28;20206;-69
2022/08/06 02:21:35;;;;;;;9.38;8.30;;;23.70;98.20;;;;;;5051671;28;20234;-69
2022/08/06 02:24:04;;;;;;;9.57;8.38;;;23.70;98.10;;;;;;5044702;28;20221;-69
2022/08/06 02:26:33;;;;;;;9.48;8.07;;;23.70;98.00;;;;;;5042993;28;20202;-69
2022/08/06 02:29:02;;;;;;;10.63;8.38;;;23.80;98.00;;;;;;5055978;28;20205;-69
2022/08/06 02:31:29;;;;;;;9.82;8.15;;;23.80;97.80;;;;;;5059608;28;20723;-69
2022/08/06 02:33:58;;;;;;;10.75;9.07;;;23.80;97.70;;;;;;5050699;28;20210;-69
2022/08/06 02:36:30;;;;;;;9.77;8.10;;;23.80;97.60;;;;;;5057479;28;20230;-70
2022/08/06 02:39:02;;;;;;;9.35;8.50;;;23.80;97.70;;;;;;5051387;28;20236;-70
2022/08/06 02:41:33;;;;;;;11.65;9.68;;;23.80;97.50;;;;;;5051193;28;20233;-70
2022/08/06 02:44:06;;;;;;;12.80;9.77;;;23.90;97.60;;;;;;5054520;28;20308;-69
2022/08/06 02:46:39;;;;;;;11.48;8.68;;;23.80;97.60;;;;;;5064066;28;20464;-69
2022/08/06 02:49:12;;;;;;;11.25;8.60;;;23.90;97.60;;;;;;5054349;28;20226;-69
2022/08/06 02:51:44;;;;;;;13.20;9.20;;;23.90;97.60;;;;;;5069393;28;20559;-70
2022/08/06 02:54:15;;;;;;;10.80;9.70;;;23.90;97.80;;;;;;5055829;28;20197;-70
2022/08/06 02:56:45;;;;;;;12.68;8.45;;;23.90;98.00;;;;;;5053423;28;20205;-70
2022/08/06 02:59:15;;;;;;;10.98;9.38;;;24.00;98.20;;;;;;5055436;28;20210;-70
2022/08/06 03:01:46;;;;;;;10.35;9.23;;;23.90;98.40;;;;;;5052712;28;20583;-70
2022/08/06 03:04:16;;;;;;;16.45;9.68;;;23.90;98.70;;;;;;5054573;28;20210;-70
2022/08/06 03:06:46;;;;;;;12.75;9.88;;;23.90;98.80;;;;;;5055985;28;20207;-70
2022/08/06 03:09:15;;;;;;;11.10;9.52;;;23.90;99.00;;;;;;5044831;28;20241;-70
2022/08/06 03:11:42;;;;;;;12.88;9.52;;;23.90;99.20;;;;;;5053722;28;20214;-69
2022/08/06 03:14:12;;;;;;;12.63;9.27;;;23.90;99.20;;;;;;5053877;28;20201;-69
2022/08/06 03:16:40;;;;;;;11.07;9.98;;;23.90;99.40;;;;;;5053668;28;20219;-69
2022/08/06 03:19:10;;;;;;;12.82;9.52;;;23.80;99.40;;;;;;5054225;28;20655;-70
2022/08/06 03:21:40;;;;;;;11.82;9.55;;;23.80;99.60;;;;;;5068861;28;20225;-70
2022/08/06 03:24:08;;;;;;;10.57;9.52;;;23.80;99.80;;;;;;5044274;28;20228;-70
2022/08/06 03:26:36;;;;;;;10.13;9.23;;;23.70;99.70;;;;;;5053651;28;20213;-69
2022/08/06 03:29:05;;;;;;;10.68;9.55;;;23.70;99.70;;;;;;5053249;28;20221;-70
2022/08/06 03:31:32;;;;;;;10.18;9.13;;;23.60;99.70;;;;;;5054039;28;20266;-70
2022/08/06 03:34:00;;;;;;;10.98;8.82;;;23.60;99.70;;;;;;5067902;28;20201;-70
2022/08/06 03:36:28;;;;;;;10.35;9.27;;;23.50;99.50;;;;;;5051687;28;20229;-69
2022/08/06 03:38:59;;;;;;;10.70;9.50;;;23.50;99.70;;;;;;5053642;28;20213;-70
2022/08/06 03:41:27;;;;;;;10.32;9.27;;;23.40;99.60;;;;;;5053888;28;20202;-70
2022/08/06 03:43:54;;;;;;;11.02;9.82;;;23.30;99.70;;;;;;5052932;28;20229;-70
2022/08/06 03:46:25;;;;;;;10.70;9.60;;;23.40;99.80;;;;;;5059719;28;20217;-70
2022/08/06 03:48:54;;;;;;;10.40;9.30;;;23.30;99.90;;;;;;5053827;28;20214;-70
2022/08/06 03:51:24;;;;;;;11.05;9.00;;;23.30;99.90;;;;;;5068404;28;20217;-70
2022/08/06 03:53:54;;;;;;;10.50;9.50;;;23.20;99.90;;;;;;5053024;28;20194;-69
2022/08/06 03:56:25;;;;;;;10.80;9.60;;;23.20;99.90;;;;;;5057077;28;20212;-70
2022/08/06 03:58:55;;;;;;;10.63;9.52;;;23.20;99.90;;;;;;5065604;28;20260;-70
2022/08/06 04:01:24;;;;;;;11.32;10.00;;;23.20;99.90;;;;;;5053600;28;20292;-71
2022/08/06 04:03:52;;;;;;;11.20;8.90;;;23.20;99.90;;;;;;5066127;28;20609;-69
2022/08/06 04:06:22;;;;;;;13.40;10.55;;;23.20;99.90;;;;;;5053517;28;20210;-69
2022/08/06 04:08:50;;;;;;;11.32;10.23;;;23.20;99.90;;;;;;5042933;28;20706;-69
2022/08/06 04:11:17;;;;;;;12.98;9.82;;;23.20;99.90;;;;;;5041078;28;20602;-69
2022/08/06 04:13:45;;;;;;;11.27;9.75;;;23.20;99.90;;;;;;5036709;28;20208;-69
2022/08/06 04:16:13;;;;;;;12.13;9.52;;;23.30;99.90;;;;;;5051956;28;20323;-68
2022/08/06 04:18:42;;;;;;;11.65;9.93;;;23.20;99.90;;;;;;5055784;28;20213;-69
2022/08/06 04:21:12;;;;;;;11.27;9.27;;;23.30;99.90;;;;;;5063267;28;20214;-70
2022/08/06 04:23:39;;;;;;;13.93;10.65;;;23.30;99.90;;;;;;5052276;28;20241;-70
2022/08/06 04:26:08;;;;;;;14.90;10.27;;;23.30;99.90;;;;;;5052768;28;20559;-70
2022/08/06 04:28:37;;;;;;;10.57;9.50;;;23.30;99.90;;;;;;5053495;28;20210;-71
2022/08/06 04:31:08;;;;;;;11.20;9.68;;;23.20;99.90;;;;;;5053193;28;20811;-69
2022/08/06 04:33:36;;;;;;;10.48;9.48;;;23.20;99.90;;;;;;5062275;28;20220;-69
2022/08/06 04:36:05;;;;;;;11.55;9.35;;;23.10;99.90;;;;;;5063881;28;20518;-70
2022/08/06 04:38:33;;;;;;;13.23;9.90;;;23.10;99.90;;;;;;5049168;28;20656;-71
2022/08/06 04:41:01;;;;;;;13.85;9.65;;;23.10;99.90;;;;;;5052716;28;20243;-70
2022/08/06 04:43:29;;;;;;;10.10;9.20;;;23.00;99.90;;;;;;5052528;28;20236;-70
2022/08/06 04:45:57;;;;;;;11.05;9.82;;;22.90;99.90;;;;;;5058679;28;20729;-70
2022/08/06 04:48:26;;;;;;;12.13;9.90;;;22.90;99.90;;;;;;5038970;28;20210;-71
2022/08/06 04:50:53;;;;;;;10.40;9.32;;;22.90;99.90;;;;;;5064282;28;20216;-70
2022/08/06 04:53:20;;;;;;;9.63;8.63;;;22.80;99.90;;;;;;5055469;28;20725;-70
2022/08/06 04:55:48;;;;;;;13.20;8.95;;;22.80;99.90;;;;;;5059806;28;20209;-70
2022/08/06 04:58:16;;;;;;;10.13;8.80;;;22.70;99.90;;;;;;5038220;28;20202;-70
2022/08/06 05:00:44;;;;;;;10.05;9.05;;;22.70;99.90;;;;;;5050747;28;20572;-66
2022/08/06 05:03:11;;;;;;;10.48;8.90;;;22.70;99.90;;;;;;5050287;28;20596;-67
2022/08/06 05:05:47;;;;;;;8.48;7.63;;;22.70;99.90;;;;;;5051258;28;20202;-67
2022/08/06 05:08:14;;;;;;;8.98;7.72;;;22.80;99.90;;;;;;5050928;28;20198;-66
2022/08/06 05:10:48;;;;;;;7.78;7.07;;;22.80;99.90;;;;;;5052244;28;20728;-67
2022/08/06 05:13:16;;;;;;;8.10;7.30;;;22.80;99.90;;;;;;5052260;28;20202;-65
2022/08/06 05:15:46;;;;;;;8.13;7.30;;;22.80;99.90;;;;;;5045451;28;20587;-69
2022/08/06 05:18:16;;;;;;;11.43;7.15;;;22.80;99.90;;;;;;5053681;28;20320;-70
2022/08/06 05:20:50;;;;;;;7.80;6.72;;;22.90;99.90;;;;;;5049230;28;20609;-69
2022/08/06 05:23:21;;;;;;;7.55;6.70;;;22.90;99.90;;;;;;5052155;28;20229;-70
2022/08/06 05:25:49;;;;;;;8.60;6.35;;;22.90;99.90;;;;;;5036942;28;20210;-69
2022/08/06 05:28:16;;;;;;;7.43;6.15;;;23.10;99.90;;;;;;5044367;28;20220;-70
2022/08/06 05:30:44;;;;;;;6.00;5.40;;;23.20;99.90;;;;;;5050245;28;20242;-71
2022/08/06 05:33:11;;;;;;;6.90;5.95;;;23.30;99.90;;;;;;5058247;28;20205;-70
2022/08/06 05:35:38;;;;;;;8.23;5.75;;;23.40;99.90;;;;;;5058117;28;20251;-68
2022/08/06 05:38:06;;;;;;;5.70;5.10;;;23.40;99.90;;;;;;5052062;28;20210;-68
2022/08/06 05:40:35;;;;;;;6.55;5.78;;;23.40;99.90;;;;;;5052029;28;20206;-67
2022/08/06 05:43:02;;;;;;;7.63;5.43;;;23.30;99.90;;;;;;5051983;28;20221;-67
2022/08/06 05:45:28;;;;;;;7.10;5.22;;;23.20;99.90;;;;;;5063105;28;20219;-68
2022/08/06 05:47:57;;;;;;;5.75;5.13;;;23.20;99.90;;;;;;5041912;28;20217;-68
2022/08/06 05:50:30;;;;;;;5.93;5.32;;;23.10;99.90;;;;;;5053257;28;20220;-69
2022/08/06 05:53:03;;;;;;;4.97;4.57;;;23.00;99.90;;;;;;5051952;28;20198;-66
2022/08/06 05:55:39;;;;;;;5.65;4.90;;;22.90;99.90;;;;;;5049009;28;20202;-68
2022/08/06 05:58:11;;;;;;;6.70;5.30;;;22.80;99.90;;;;;;5045336;28;20218;-71
2022/08/06 06:00:41;;;;;;;6.38;5.22;;;22.80;99.90;;;;;;5063523;28;20561;-71
2022/08/06 06:03:11;;;;;;;5.68;4.95;;;22.70;99.90;;;;;;5051240;28;20248;-71
2022/08/06 06:05:39;;;;;;;5.68;5.18;;;22.70;99.90;;;;;;5043422;28;20205;-66
2022/08/06 06:08:08;;;;;;;5.90;5.40;;;22.70;99.90;;;;;;5066890;28;20215;-71
2022/08/06 06:10:38;;;;;;;5.68;5.22;;;22.70;99.90;;;;;;5066662;28;20205;-70
2022/08/06 06:13:05;;;;;;;6.18;5.50;;;22.60;99.90;;;;;;5059229;28;20729;-71
2022/08/06 06:15:37;;;;;;;6.10;5.50;;;22.60;99.90;;;;;;5064306;28;20204;-71
2022/08/06 06:18:13;;;;;;;10.75;5.60;;;22.60;99.90;;;;;;5065263;28;20205;-71
2022/08/06 06:20:49;;;;;;;7.20;5.85;;;22.60;99.90;;;;;;5060771;28;20581;-73
2022/08/06 06:23:25;;;;;;;9.90;5.78;;;22.70;99.90;;;;;;5068609;28;20241;-71
2022/08/06 06:26:01;;;;;;;7.30;5.80;;;22.70;99.90;;;;;;5071453;28;20212;-71
2022/08/06 06:28:34;;;;;;;6.10;5.53;;;22.70;99.90;;;;;;5060468;28;20229;-72
2022/08/06 06:31:12;;;;;;;6.15;5.55;;;22.80;99.90;;;;;;5063680;28;20249;-70
2022/08/06 06:33:44;;;;;;;6.72;5.97;;;22.90;99.90;;;;;;5057555;28;20195;-71
2022/08/06 06:36:21;;;;;;;6.50;5.68;;;22.90;99.90;;;;;;5053940;28;20292;-71
2022/08/06 06:38:55;;;;;;;5.85;5.35;;;23.00;99.90;;;;;;5058670;28;20208;-72
2022/08/06 06:41:30;;;;;;;6.13;5.53;;;22.90;99.90;;;;;;5059915;28;20220;-72
2022/08/06 06:44:05;;;;;;;7.10;6.07;;;23.00;99.90;;;;;;5053614;28;20700;-72
2022/08/06 06:46:35;;;;;;;7.10;5.50;;;22.90;99.90;;;;;;5054771;28;20220;-72
2022/08/06 06:49:08;;;;;;;6.55;5.80;;;23.00;99.90;;;;;;5061185;28;20205;-71
2022/08/06 06:51:45;;;;;;;8.32;6.63;;;22.90;99.90;;;;;;5066452;28;20197;-71
2022/08/06 06:54:19;;;;;;;6.88;6.20;;;22.90;99.90;;;;;;5060901;28;20201;-71
2022/08/06 06:56:50;;;;;;;7.00;5.35;;;22.90;99.90;;;;;;5055132;28;20717;-71
2022/08/06 06:59:21;;;;;;;7.05;5.80;;;22.90;99.90;;;;;;5062808;28;20220;-72
2022/08/06 07:01:48;;;;;;;5.97;5.40;;;22.90;99.90;;;;;;5065020;28;20198;-70
2022/08/06 07:04:17;;;;;;;7.72;4.93;;;22.90;99.90;;;;;;5052347;28;20236;-72
2022/08/06 07:06:47;;;;;;;5.78;5.07;;;22.90;99.90;;;;;;5056391;28;20206;-72
2022/08/06 07:09:18;;;;;;;7.05;4.88;;;22.90;99.90;;;;;;5047394;28;20213;-71
2022/08/06 07:11:48;;;;;;;8.10;4.45;;;22.90;99.90;;;;;;5051448;28;20214;-70
2022/08/06 07:14:16;;;;;;;5.43;4.93;;;22.80;99.90;;;;;;5062202;28;20209;-70
2022/08/06 07:16:44;;;;;;;7.40;4.85;;;22.80;99.90;;;;;;5043820;28;20214;-68
2022/08/06 07:19:13;;;;;;;6.57;5.15;;;22.80;99.90;;;;;;5051708;28;20229;-69
2022/08/06 07:21:41;;;;;;;4.80;4.35;;;22.70;99.90;;;;;;5050561;28;20233;-68
2022/08/06 07:24:09;;;;;;;5.00;4.50;;;22.60;99.90;;;;;;5040421;28;20292;-70
2022/08/06 07:26:37;;;;;;;5.47;4.50;;;22.60;99.90;;;;;;5050945;28;20565;-68
2022/08/06 07:29:09;;;;;;;6.03;4.25;;;22.60;99.90;;;;;;5052656;28;20214;-69
2022/08/06 07:31:37;;;;;;;4.63;4.22;;;22.50;99.90;;;;;;5055948;28;20596;-69
2022/08/06 07:34:04;;;;;;;4.53;4.15;;;22.50;99.90;;;;;;5051484;28;20217;-68
2022/08/06 07:36:33;;;;;;;4.32;3.92;;;22.40;99.90;;;;;;5051967;28;20210;-71
2022/08/06 07:39:04;;;;;;;5.78;4.47;;;22.40;99.90;;;;;;5053684;28;20655;-69
2022/08/06 07:41:34;;;;;;;4.10;3.70;;;22.30;99.90;;;;;;5053384;28;20548;-73
2022/08/06 07:44:03;;;;;;;3.72;3.30;;;22.30;99.90;;;;;;5052115;28;20213;-69
2022/08/06 07:46:38;;;;;;;3.75;3.28;;;22.30;99.90;;;;;;5057346;28;20681;-70
2022/08/06 07:49:07;;;;;;;3.92;3.53;;;22.30;99.90;;;;;;5059384;28;20323;-70
2022/08/06 07:51:39;;;;;;;8.57;3.30;;;22.20;99.90;;;;;;5057216;28;20197;-70
2022/08/06 07:54:08;;;;;;;4.28;3.60;;;22.20;99.90;;;;;;5061832;28;20722;-70
2022/08/06 07:56:37;;;;;;;6.53;3.33;;;22.20;99.90;;;;;;5060574;28;20273;-70
2022/08/06 07:59:06;;;;;;;3.38;2.50;;;22.20;99.90;;;;;;5056006;28;20296;-70
2022/08/06 08:01:35;;;;;;;5.15;2.85;;;22.10;99.90;;;;;;5059952;28;20628;-70
2022/08/06 08:06:46;;;;;;;3.05;2.55;;;22.00;99.90;;;;;;5062501;28;20580;-70
2022/08/06 08:09:17;;;;;;;5.00;2.55;;;21.90;99.90;;;;;;5056162;28;20201;-71
2022/08/06 08:11:46;;;;;;;7.85;2.60;;;21.80;99.90;;;;;;5064427;28;20200;-68
2022/08/06 08:14:17;;;;;;;3.30;3.03;;;21.80;99.90;;;;;;5060080;28;20217;-70
2022/08/06 08:16:45;;;;;;;4.20;3.80;;;21.70;99.90;;;;;;5056708;28;20213;-71
2022/08/06 08:19:31;;;;;;;5.38;4.10;;;21.70;99.90;;;;;;5054611;28;20218;-70
2022/08/06 08:21:59;;;;;;;4.32;3.92;;;21.70;99.90;;;;;;5045220;28;20283;-70
2022/08/06 08:24:27;;;;;;;6.57;4.88;;;21.70;99.90;;;;;;5056431;28;20587;-70
2022/08/06 08:26:54;;;;;;;5.13;4.70;;;21.60;99.90;;;;;;5068294;28;20209;-69
2022/08/06 08:29:21;;;;;;;5.80;4.30;;;21.60;99.90;;;;;;5065357;28;20209;-68
2022/08/06 08:31:49;;;;;;;3.72;3.20;;;21.70;99.90;;;;;;5069840;28;20830;-69
2022/08/06 08:34:16;;;;;;;5.15;2.30;;;21.60;99.90;;;;;;5056386;28;20217;-68
2022/08/06 08:36:43;;;;;;;2.10;1.90;;;21.50;99.90;;;;;;5053755;28;20229;-70
2022/08/06 08:39:10;;;;;;;3.45;2.33;;;21.50;99.90;;;;;;5066187;28;20216;-72
2022/08/06 08:41:40;;;;;;;4.43;1.83;;;21.40;99.90;;;;;;5049098;28;20199;-72
2022/08/06 08:44:08;;;;;;;2.25;2.05;;;21.40;99.90;;;;;;5046951;28;20229;-72
2022/08/06 08:46:37;;;;;;;2.15;1.85;;;21.30;99.90;;;;;;5044651;28;20210;-73
2022/08/06 08:49:12;;;;;;;1.83;1.73;;;21.30;99.90;;;;;;5045286;28;20225;-75
2022/08/06 08:51:41;;;;;;;1.80;1.60;;;21.30;99.90;;;;;;5054069;28;20229;-74
2022/08/06 08:54:10;;;;;;;2.63;2.10;;;21.30;99.90;;;;;;5053008;28;20210;-74
2022/08/06 08:56:38;;;;;;;2.58;1.77;;;21.20;99.90;;;;;;5054821;28;20209;-71
2022/08/06 08:59:05;;;;;;;2.05;1.95;;;21.20;99.90;;;;;;5055586;28;20210;-73
2022/08/06 09:01:33;;;;;;;2.03;1.80;;;21.30;99.90;;;;;;5058102;28;20233;-71
2022/08/06 09:04:05;;;;;;;1.70;1.60;;;21.30;99.90;;;;;;5048574;28;20236;-72
2022/08/06 09:06:32;;;;;;;2.13;1.50;;;21.20;99.90;;;;;;5061735;28;20207;-71
2022/08/06 09:09:03;;;;;;;3.28;2.10;;;21.20;99.90;;;;;;5053548;28;20585;-72
2022/08/06 09:11:30;;;;;;;2.78;2.13;;;21.20;99.90;;;;;;5057852;28;20220;-72
2022/08/06 09:13:57;;;;;;;2.97;2.08;;;21.20;99.90;;;;;;5055100;28;20206;-72
2022/08/06 09:16:24;;;;;;;2.95;2.33;;;21.20;99.90;;;;;;5047928;28;20214;-72
2022/08/06 09:18:51;;;;;;;3.03;2.30;;;21.20;99.90;;;;;;5059406;28;20288;-72
2022/08/06 09:21:19;;;;;;;3.15;2.10;;;21.20;99.90;;;;;;5062506;28;20213;-72
2022/08/06 09:23:46;;;;;;;2.83;2.45;;;21.20;99.90;;;;;;5054619;28;20233;-73
2022/08/06 09:26:12;;;;;;;3.42;2.15;;;21.10;99.90;;;;;;5058637;28;20206;-74
2022/08/06 09:28:41;;;;;;;3.40;2.33;;;20.90;99.90;;;;;;5052580;28;20225;-73
2022/08/06 09:31:09;;;;;;;2.50;2.20;;;20.80;99.90;;;;;;5058690;28;20292;-72
2022/08/06 09:33:38;;;;;;;4.35;2.47;;;20.70;99.90;;;;;;5055811;28;20216;-73
2022/08/06 09:36:07;;;;;;;3.00;2.40;;;20.60;99.90;;;;;;5055318;28;20249;-73
2022/08/06 09:38:47;;;;;;;3.00;2.50;;;20.50;99.90;;;;;;5049167;28;20209;-71
2022/08/06 09:41:14;;;;;;;4.05;2.83;;;20.50;99.90;;;;;;5042791;28;20206;-70
2022/08/06 09:43:42;;;;;;;3.05;2.20;;;20.50;99.90;;;;;;5053624;28;20206;-70
2022/08/06 09:46:09;;;;;;;2.53;2.33;;;20.50;99.90;;;;;;5052334;28;20218;-70
2022/08/06 09:48:37;;;;;;;3.08;2.35;;;20.50;99.90;;;;;;5043463;28;20210;-69
2022/08/06 09:51:04;;;;;;;3.25;2.00;;;20.60;99.90;;;;;;5049152;28;20217;-71
2022/08/06 09:53:31;;;;;;;2.03;1.58;;;20.60;99.90;;;;;;5054665;28;20210;-79
2022/08/06 09:55:59;;;;;;;2.78;1.60;;;20.60;99.90;;;;;;5056249;28;20201;-77
2022/08/06 09:58:35;;;;;;;2.22;1.90;;;20.60;99.90;;;;;;5056429;28;20233;-77
2022/08/06 10:01:16;;;;;;;4.32;1.98;;;20.50;99.90;;;;;;5066431;28;20560;-79
2022/08/06 10:03:44;;;;;;;2.60;1.38;;;20.50;99.90;;;;;;5057586;28;20456;-78
2022/08/06 10:06:12;;;;;;;2.85;2.13;;;20.50;99.90;;;;;;5055870;28;20576;-80
2022/08/06 10:08:40;;;;;;;2.10;1.95;;;20.70;99.90;;;;;;5052248;28;20207;-80
2022/08/06 10:11:08;;;;;;;3.50;2.03;;;20.60;99.90;;;;;;5058639;28;20569;-77
2022/08/06 10:13:37;;;;;;;2.78;2.15;;;20.50;99.90;;;;;;5058482;28;20269;-78
2022/08/06 10:16:17;;;;;;;4.25;1.88;;;20.70;99.90;;;;;;5057788;28;20217;-73
2022/08/06 10:18:46;;;;;;;2.20;1.88;;;20.70;99.90;;;;;;5054340;28;20212;-79
2022/08/06 10:21:15;;;;;;;2.10;1.70;;;20.60;99.90;;;;;;5061246;28;20662;-79
2022/08/06 10:23:45;;;;;;;3.75;1.90;;;20.70;99.90;;;;;;5060980;28;20209;-78
2022/08/06 10:26:18;;;;;;;4.18;1.92;;;20.80;99.90;;;;;;5068741;28;20236;-75
2022/08/06 10:28:46;;;;;;;3.42;2.00;;;20.80;99.90;;;;;;5051020;28;20220;-75
2022/08/06 10:31:15;;;;;;;4.60;2.15;;;20.80;99.90;;;;;;5053671;28;20229;-74
2022/08/06 10:33:55;;;;;;;4.82;2.08;;;20.80;99.90;;;;;;5055465;28;20650;-74
2022/08/06 10:36:29;;;;;;;3.40;2.10;;;20.80;99.90;;;;;;5056591;28;20205;-76
2022/08/06 10:38:57;;;;;;;2.13;1.85;;;20.80;99.90;;;;;;5057354;28;20210;-76
2022/08/06 10:41:26;;;;;;;3.88;1.90;;;20.70;99.90;;;;;;5056370;28;20237;-76
2022/08/06 10:43:55;;;;;;;3.20;1.95;;;20.60;99.90;;;;;;5067437;28;20772;-74
2022/08/06 10:46:22;;;;;;;2.75;1.80;;;20.60;99.90;;;;;;5053227;28;20226;-75
2022/08/06 10:48:50;;;;;;;2.13;1.92;;;20.50;99.90;;;;;;5044092;28;20208;-76
2022/08/06 10:51:17;;;;;;;2.92;1.80;;;20.40;99.90;;;;;;5054144;28;20208;-74
2022/08/06 10:53:45;;;;;;;4.63;2.00;;;20.50;99.90;;;;;;5057438;28;20572;-74
2022/08/06 10:56:13;;;;;;;4.30;1.83;;;20.50;99.90;;;;;;5068043;28;20204;-77
2022/08/06 10:58:42;;;;;;;2.65;1.50;;;20.40;99.90;;;;;;5053454;28;20218;-74
2022/08/06 11:01:11;;;;;;;2.10;1.58;;;20.50;99.90;;;;;;5051314;28;20218;-73
2022/08/06 11:04:11;;;;;;;1.63;1.25;;;20.50;99.90;;;;;;5050149;28;20217;-74
2022/08/06 11:07:00;;;;;;;1.95;1.42;;;20.60;99.90;;;;;;5049737;28;20201;-75
2022/08/06 11:09:50;;;;;;;3.55;1.80;;;20.50;99.90;;;;;;5050457;28;20206;-72
2022/08/06 11:12:31;;;;;;;3.28;1.58;;;20.50;99.90;;;;;;5066912;28;20483;-74
2022/08/06 11:15:01;;;;;;;3.25;1.80;;;20.50;99.90;;;;;;5055018;28;20213;-75
2022/08/06 11:17:42;;;;;;;3.58;1.45;;;20.50;99.90;;;;;;5058799;28;20210;-78
2022/08/06 11:20:36;;;;;;;4.35;1.58;;;20.50;99.90;;;;;;5064214;28;20206;-78
2022/08/06 11:23:04;;;;;;;1.73;1.30;;;20.40;99.90;;;;;;5059333;28;20268;-76
2022/08/06 11:25:42;;;;;;;1.60;1.33;;;20.50;99.90;;;;;;5067474;28;20280;-75
2022/08/06 11:28:09;;;;;;;2.17;1.45;;;20.30;99.90;;;;;;5054040;28;20649;-73
2022/08/06 11:30:43;;;;;;;2.60;1.30;;;20.40;99.90;;;;;;5051627;28;20229;-71
2022/08/06 11:33:11;;;;;;;2.20;1.58;;;20.40;99.90;;;;;;5049606;28;20205;-73
2022/08/06 11:35:43;;;;;;;3.92;1.27;;;20.40;99.90;;;;;;5053983;28;20209;-73
2022/08/06 11:38:13;;;;;;;3.80;1.67;;;20.20;99.90;;;;;;5054269;28;20214;-72
2022/08/06 11:40:57;;;;;;;1.05;1.00;;;20.30;99.90;;;;;;5057217;28;20210;-72
2022/08/06 11:44:03;;;;;;;2.33;1.23;;;20.30;99.90;;;;;;5048815;28;20221;-71
2022/08/06 11:46:33;;;;;;;1.83;1.20;;;20.20;99.90;;;;;;5051010;28;20213;-74
2022/08/06 11:49:20;;;;;;;2.08;1.02;;;20.10;99.90;;;;;;5053926;28;20217;-71
2022/08/06 11:51:49;;;;;;;2.63;1.13;;;20.10;99.90;;;;;;5048933;28;20202;-72
2022/08/06 11:54:17;;;;;;;1.20;1.00;;;20.00;99.90;;;;;;5060195;28;20661;-73
2022/08/06 11:57:23;;;;;;;2.45;0.98;;;20.00;99.90;;;;;;5060301;28;20221;-73
2022/08/06 12:00:13;;;;;;;2.10;1.10;;;19.90;99.90;;;;;;5058891;28;20665;-73
2022/08/06 12:02:58;;;;;;;2.45;1.08;;;19.90;99.90;;;;;;5062556;28;20209;-74
2022/08/06 12:05:46;;;;;;;1.67;0.95;;;19.90;99.90;;;;;;5061775;28;20218;-75
2022/08/06 12:08:22;;;;;;;3.45;1.92;;;19.90;99.90;;;;;;5061948;28;20216;-75
2022/08/06 12:11:35;;;;;;;1.25;0.90;;;19.80;99.90;;;;;;5058523;28;20208;-75
2022/08/06 12:14:02;;;;;;;1.27;1.00;;;19.80;99.90;;;;;;5044076;28;20202;-74
2022/08/06 12:16:35;;;;;;;3.65;1.02;;;19.70;99.90;;;;;;5051192;28;20282;-75
2022/08/06 12:19:05;;;;;;;1.42;1.00;;;19.70;99.90;;;;;;5054129;28;20209;-76
2022/08/06 12:21:33;;;;;;;1.20;1.10;;;19.70;99.90;;;;;;5057743;28;20808;-77
2022/08/06 12:24:01;;;;;;;6.25;1.80;;;19.70;99.90;;;;;;5052303;28;20647;-76
2022/08/06 12:26:43;;;;;;;1.33;1.20;;;19.70;99.90;;;;;;5049781;28;20273;-72
2022/08/06 12:29:09;;;;;;;2.17;1.55;;;19.70;99.90;;;;;;5051554;28;20201;-72
2022/08/06 12:31:39;;;;;;;1.85;1.40;;;19.70;99.90;;;;;;5057784;28;20249;-76
2022/08/06 12:34:07;;;;;;;2.60;1.48;;;19.60;99.90;;;;;;5048797;28;20210;-76
2022/08/06 12:36:36;;;;;;;2.17;1.30;;;19.60;99.90;;;;;;5054950;28;20210;-75
2022/08/06 12:39:07;;;;;;;2.28;1.60;;;19.60;99.90;;;;;;5046144;28;20214;-71
2022/08/06 12:41:41;;;;;;;2.47;1.48;;;19.60;99.90;;;;;;5049015;28;20220;-68
2022/08/06 12:44:11;;;;;;;4.85;2.35;;;19.70;99.90;;;;;;5059621;28;20209;-71
2022/08/06 12:46:38;;;;;;;3.97;1.83;;;19.70;99.90;;;;;;5052581;28;20213;-73
2022/08/06 12:49:07;;;;;;;1.85;1.73;;;19.70;99.90;;;;;;5059777;28;20592;-71
2022/08/06 12:51:34;;;;;;;1.85;1.48;;;19.70;99.90;;;;;;5054232;28;20310;-69
2022/08/06 12:54:03;;;;;;;1.60;1.50;;;19.80;99.90;;;;;;5054970;28;20733;-69
2022/08/06 12:56:39;;;;;;;4.45;2.13;;;19.80;99.90;;;;;;5045263;28;20210;-70
2022/08/06 12:59:09;;;;;;;2.53;1.60;;;20.00;99.90;;;;;;5050595;28;20600;-68
2022/08/06 13:01:37;;;;;;;4.25;2.28;;;20.20;99.90;;;;;;5064658;28;20217;-70
2022/08/06 13:04:12;;;;;;;3.70;2.00;;;20.40;99.90;;;;;;5051100;28;20657;-71